sensor_id;sensor_type;location;lat;lon;timestamp;pressure;altitude;pressure_sealevel;temperature;humidity
4981;BME280;2507;50.392;7.482;2022-07-06T00:01:26;101582.22;;;18.96;51.36
4981;BME280;2507;50.392;7.482;2022-07-06T00:03:51;101591.03;;;18.87;51.43
4981;BME280;2507;50.392;7.482;2022-07-06T00:06:16;101589.19;;;18.78;51.91
4981;BME280;2507;50.392;7.482;2022-07-06T00:08:42;101586.53;;;18.78;51.58
4981;BME280;2507;50.392;7.482;2022-07-06T00:11:07;101587.63;;;18.75;52.53
4981;BME280;2507;50.392;7.482;2022-07-06T00:13:33;101584.00;;;18.76;52.25
4981;BME280;2507;50.392;7.482;2022-07-06T00:15:58;101586.34;;;18.70;52.49
4981;BME280;2507;50.392;7.482;2022-07-06T00:18:23;101594.00;;;18.54;53.30
4981;BME280;2507;50.392;7.482;2022-07-06T00:20:49;101591.94;;;18.36;54.03
4981;BME280;2507;50.392;7.482;2022-07-06T00:23:14;101594.88;;;18.33;54.68
4981;BME280;2507;50.392;7.482;2022-07-06T00:25:39;101583.97;;;18.27;54.22
4981;BME280;2507;50.392;7.482;2022-07-06T00:28:04;101591.75;;;18.19;54.68
4981;BME280;2507;50.392;7.482;2022-07-06T00:30:30;101594.09;;;18.12;55.02
4981;BME280;2507;50.392;7.482;2022-07-06T00:32:55;101599.66;;;18.09;55.27
4981;BME280;2507;50.392;7.482;2022-07-06T00:35:20;101598.91;;;17.98;55.62
4981;BME280;2507;50.392;7.482;2022-07-06T00:37:46;101598.66;;;18.01;55.38
4981;BME280;2507;50.392;7.482;2022-07-06T00:40:11;101603.66;;;17.94;55.50
4981;BME280;2507;50.392;7.482;2022-07-06T00:42:44;101610.56;;;18.06;55.81
4981;BME280;2507;50.392;7.482;2022-07-06T00:45:11;101600.53;;;17.89;55.51
4981;BME280;2507;50.392;7.482;2022-07-06T00:47:37;101605.81;;;17.80;55.74
4981;BME280;2507;50.392;7.482;2022-07-06T00:50:04;101601.28;;;17.71;56.00
4981;BME280;2507;50.392;7.482;2022-07-06T00:52:40;101595.03;;;17.61;56.15
4981;BME280;2507;50.392;7.482;2022-07-06T00:55:07;101604.50;;;17.54;56.60
4981;BME280;2507;50.392;7.482;2022-07-06T00:57:34;101593.28;;;17.50;56.73
4981;BME280;2507;50.392;7.482;2022-07-06T01:00:00;101609.59;;;17.66;56.00
4981;BME280;2507;50.392;7.482;2022-07-06T01:02:26;101611.91;;;17.71;56.23
4981;BME280;2507;50.392;7.482;2022-07-06T01:04:51;101601.00;;;17.74;55.60
4981;BME280;2507;50.392;7.482;2022-07-06T01:07:16;101598.63;;;17.71;55.88
4981;BME280;2507;50.392;7.482;2022-07-06T01:09:42;101589.81;;;17.70;56.01
4981;BME280;2507;50.392;7.482;2022-07-06T01:12:07;101600.00;;;17.75;56.20
4981;BME280;2507;50.392;7.482;2022-07-06T01:14:34;101594.69;;;17.75;55.64
4981;BME280;2507;50.392;7.482;2022-07-06T01:17:00;101606.81;;;17.68;55.91
4981;BME280;2507;50.392;7.482;2022-07-06T01:19:26;101601.78;;;17.65;56.26
4981;BME280;2507;50.392;7.482;2022-07-06T01:21:51;101593.53;;;17.68;55.65
4981;BME280;2507;50.392;7.482;2022-07-06T01:24:17;101598.41;;;17.63;55.43
4981;BME280;2507;50.392;7.482;2022-07-06T01:26:42;101598.53;;;17.61;55.60
4981;BME280;2507;50.392;7.482;2022-07-06T01:29:08;101600.03;;;17.54;55.61
4981;BME280;2507;50.392;7.482;2022-07-06T01:31:33;101596.66;;;17.52;55.70
4981;BME280;2507;50.392;7.482;2022-07-06T01:33:58;101592.81;;;17.45;55.71
4981;BME280;2507;50.392;7.482;2022-07-06T01:36:24;101594.41;;;17.36;56.33
4981;BME280;2507;50.392;7.482;2022-07-06T01:38:54;101589.22;;;17.35;56.33
4981;BME280;2507;50.392;7.482;2022-07-06T01:41:22;101589.94;;;17.37;56.50
4981;BME280;2507;50.392;7.482;2022-07-06T01:43:47;101597.91;;;17.37;56.57
4981;BME280;2507;50.392;7.482;2022-07-06T01:46:13;101585.97;;;17.31;56.46
4981;BME280;2507;50.392;7.482;2022-07-06T01:48:38;101591.00;;;17.14;57.15
4981;BME280;2507;50.392;7.482;2022-07-06T01:51:04;101590.03;;;17.15;56.86
4981;BME280;2507;50.392;7.482;2022-07-06T01:53:30;101591.75;;;17.05;57.17
4981;BME280;2507;50.392;7.482;2022-07-06T01:55:55;101598.53;;;16.98;57.13
4981;BME280;2507;50.392;7.482;2022-07-06T01:58:21;101596.72;;;16.98;57.10
4981;BME280;2507;50.392;7.482;2022-07-06T02:00:46;101599.13;;;17.01;56.76
4981;BME280;2507;50.392;7.482;2022-07-06T02:03:12;101600.59;;;16.94;56.79
4981;BME280;2507;50.392;7.482;2022-07-06T02:05:37;101598.06;;;16.82;57.20
4981;BME280;2507;50.392;7.482;2022-07-06T02:08:02;101601.84;;;16.79;57.44
4981;BME280;2507;50.392;7.482;2022-07-06T02:10:27;101609.91;;;16.78;57.17
4981;BME280;2507;50.392;7.482;2022-07-06T02:12:53;101605.69;;;16.75;57.13
4981;BME280;2507;50.392;7.482;2022-07-06T02:15:18;101607.16;;;16.68;57.39
4981;BME280;2507;50.392;7.482;2022-07-06T02:17:43;101608.13;;;16.67;57.14
4981;BME280;2507;50.392;7.482;2022-07-06T02:20:09;101608.72;;;16.71;56.96
4981;BME280;2507;50.392;7.482;2022-07-06T02:22:34;101607.16;;;16.57;57.16
4981;BME280;2507;50.392;7.482;2022-07-06T02:24:59;101606.69;;;16.52;57.30
4981;BME280;2507;50.392;7.482;2022-07-06T02:27:25;101608.00;;;16.35;57.81
4981;BME280;2507;50.392;7.482;2022-07-06T02:29:50;101609.78;;;16.24;57.97
4981;BME280;2507;50.392;7.482;2022-07-06T02:32:16;101610.50;;;16.15;58.18
4981;BME280;2507;50.392;7.482;2022-07-06T02:34:41;101611.34;;;16.04;58.71
4981;BME280;2507;50.392;7.482;2022-07-06T02:37:06;101616.19;;;16.10;58.34
4981;BME280;2507;50.392;7.482;2022-07-06T02:39:32;101609.56;;;16.16;58.14
4981;BME280;2507;50.392;7.482;2022-07-06T02:41:57;101604.97;;;16.07;58.21
4981;BME280;2507;50.392;7.482;2022-07-06T02:44:22;101607.75;;;16.05;58.10
4981;BME280;2507;50.392;7.482;2022-07-06T02:46:48;101605.31;;;15.91;58.79
4981;BME280;2507;50.392;7.482;2022-07-06T02:49:13;101605.53;;;15.88;58.81
4981;BME280;2507;50.392;7.482;2022-07-06T02:51:38;101614.81;;;15.94;58.35
4981;BME280;2507;50.392;7.482;2022-07-06T02:54:03;101614.81;;;15.83;58.84
4981;BME280;2507;50.392;7.482;2022-07-06T02:56:29;101616.81;;;15.68;59.21
4981;BME280;2507;50.392;7.482;2022-07-06T02:58:54;101618.84;;;15.65;59.45
4981;BME280;2507;50.392;7.482;2022-07-06T03:01:19;101619.56;;;15.67;59.15
4981;BME280;2507;50.392;7.482;2022-07-06T03:03:44;101619.09;;;15.62;59.36
4981;BME280;2507;50.392;7.482;2022-07-06T03:06:10;101625.44;;;15.59;59.15
4981;BME280;2507;50.392;7.482;2022-07-06T03:08:35;101628.94;;;15.60;59.41
4981;BME280;2507;50.392;7.482;2022-07-06T03:11:01;101623.38;;;15.52;59.58
4981;BME280;2507;50.392;7.482;2022-07-06T03:13:27;101627.31;;;15.46;59.55
4981;BME280;2507;50.392;7.482;2022-07-06T03:15:53;101618.66;;;15.44;59.32
4981;BME280;2507;50.392;7.482;2022-07-06T03:18:18;101625.75;;;15.31;59.99
4981;BME280;2507;50.392;7.482;2022-07-06T03:20:43;101638.22;;;15.18;60.53
4981;BME280;2507;50.392;7.482;2022-07-06T03:23:09;101636.41;;;15.18;60.55
4981;BME280;2507;50.392;7.482;2022-07-06T03:25:34;101638.44;;;15.15;60.75
4981;BME280;2507;50.392;7.482;2022-07-06T03:27:59;101636.97;;;15.11;60.79
4981;BME280;2507;50.392;7.482;2022-07-06T03:30:25;101645.19;;;15.19;60.35
4981;BME280;2507;50.392;7.482;2022-07-06T03:32:50;101653.31;;;15.28;60.19
4981;BME280;2507;50.392;7.482;2022-07-06T03:35:15;101645.38;;;15.28;60.02
4981;BME280;2507;50.392;7.482;2022-07-06T03:37:41;101651.94;;;15.23;60.44
4981;BME280;2507;50.392;7.482;2022-07-06T03:40:06;101660.75;;;15.11;60.45
4981;BME280;2507;50.392;7.482;2022-07-06T03:42:32;101649.38;;;15.10;60.69
4981;BME280;2507;50.392;7.482;2022-07-06T03:44:57;101656.22;;;15.13;60.73
4981;BME280;2507;50.392;7.482;2022-07-06T03:47:22;101657.44;;;15.20;60.53
4981;BME280;2507;50.392;7.482;2022-07-06T03:49:48;101662.78;;;15.31;60.35
4981;BME280;2507;50.392;7.482;2022-07-06T03:52:13;101668.69;;;15.34;60.11
4981;BME280;2507;50.392;7.482;2022-07-06T03:54:38;101671.88;;;15.40;59.86
4981;BME280;2507;50.392;7.482;2022-07-06T03:57:03;101670.25;;;15.50;59.13
4981;BME280;2507;50.392;7.482;2022-07-06T03:59:29;101672.78;;;15.51;59.08
4981;BME280;2507;50.392;7.482;2022-07-06T04:01:54;101674.69;;;15.49;59.16
4981;BME280;2507;50.392;7.482;2022-07-06T04:04:19;101681.22;;;15.32;59.72
4981;BME280;2507;50.392;7.482;2022-07-06T04:06:45;101668.00;;;15.32;59.78
4981;BME280;2507;50.392;7.482;2022-07-06T04:09:10;101670.97;;;15.28;59.70
4981;BME280;2507;50.392;7.482;2022-07-06T04:11:36;101675.69;;;15.35;59.50
4981;BME280;2507;50.392;7.482;2022-07-06T04:14:01;101681.81;;;15.49;59.16
4981;BME280;2507;50.392;7.482;2022-07-06T04:16:26;101678.13;;;15.62;58.70
4981;BME280;2507;50.392;7.482;2022-07-06T04:18:51;101679.25;;;15.71;58.34
4981;BME280;2507;50.392;7.482;2022-07-06T04:21:17;101691.81;;;15.80;58.33
4981;BME280;2507;50.392;7.482;2022-07-06T04:23:42;101698.53;;;15.84;57.78
4981;BME280;2507;50.392;7.482;2022-07-06T04:26:07;101691.00;;;15.90;57.94
4981;BME280;2507;50.392;7.482;2022-07-06T04:28:32;101699.84;;;16.24;56.89
4981;BME280;2507;50.392;7.482;2022-07-06T04:30:58;101700.41;;;16.73;55.83
4981;BME280;2507;50.392;7.482;2022-07-06T04:33:24;101695.59;;;17.54;53.77
4981;BME280;2507;50.392;7.482;2022-07-06T04:35:49;101694.84;;;17.63;52.73
4981;BME280;2507;50.392;7.482;2022-07-06T04:38:15;101702.25;;;18.01;52.13
4981;BME280;2507;50.392;7.482;2022-07-06T04:40:40;101700.75;;;18.79;50.42
4981;BME280;2507;50.392;7.482;2022-07-06T04:43:05;101701.94;;;19.74;47.89
4981;BME280;2507;50.392;7.482;2022-07-06T04:45:30;101702.56;;;20.52;46.31
4981;BME280;2507;50.392;7.482;2022-07-06T04:47:56;101700.22;;;21.30;44.04
4981;BME280;2507;50.392;7.482;2022-07-06T04:50:21;101698.38;;;22.19;42.51
4981;BME280;2507;50.392;7.482;2022-07-06T04:52:46;101699.66;;;22.92;40.99
4981;BME280;2507;50.392;7.482;2022-07-06T04:55:12;101690.19;;;23.13;39.98
4981;BME280;2507;50.392;7.482;2022-07-06T04:57:39;101683.44;;;23.99;38.41
4981;BME280;2507;50.392;7.482;2022-07-06T05:00:05;101692.78;;;24.52;37.47
4981;BME280;2507;50.392;7.482;2022-07-06T05:02:31;101691.19;;;25.51;35.92
4981;BME280;2507;50.392;7.482;2022-07-06T05:04:56;101694.63;;;26.04;35.26
4981;BME280;2507;50.392;7.482;2022-07-06T05:07:21;101694.63;;;26.42;33.83
4981;BME280;2507;50.392;7.482;2022-07-06T05:09:47;101686.16;;;26.30;34.14
4981;BME280;2507;50.392;7.482;2022-07-06T05:12:12;101683.66;;;25.69;34.85
4981;BME280;2507;50.392;7.482;2022-07-06T05:14:37;101690.19;;;26.78;33.94
4981;BME280;2507;50.392;7.482;2022-07-06T05:17:03;101690.56;;;27.40;32.85
4981;BME280;2507;50.392;7.482;2022-07-06T05:19:28;101690.75;;;27.59;32.88
4981;BME280;2507;50.392;7.482;2022-07-06T05:21:53;101700.44;;;27.75;31.95
4981;BME280;2507;50.392;7.482;2022-07-06T05:24:19;101703.25;;;26.00;33.75
4981;BME280;2507;50.392;7.482;2022-07-06T05:26:44;101700.38;;;24.24;36.82
4981;BME280;2507;50.392;7.482;2022-07-06T05:29:10;101706.06;;;22.65;39.99
4981;BME280;2507;50.392;7.482;2022-07-06T05:31:35;101709.69;;;21.25;42.94
4981;BME280;2507;50.392;7.482;2022-07-06T05:34:00;101713.91;;;20.54;44.93
4981;BME280;2507;50.392;7.482;2022-07-06T05:36:26;101727.66;;;20.59;45.31
4981;BME280;2507;50.392;7.482;2022-07-06T05:38:51;101716.06;;;20.41;45.71
4981;BME280;2507;50.392;7.482;2022-07-06T05:41:16;101721.06;;;20.54;45.55
4981;BME280;2507;50.392;7.482;2022-07-06T05:43:41;101713.28;;;20.04;46.47
4981;BME280;2507;50.392;7.482;2022-07-06T05:46:07;101719.31;;;19.87;47.19
4981;BME280;2507;50.392;7.482;2022-07-06T05:48:32;101718.63;;;19.57;47.85
4981;BME280;2507;50.392;7.482;2022-07-06T05:51:16;101721.38;;;18.96;49.34
4981;BME280;2507;50.392;7.482;2022-07-06T05:53:41;101723.38;;;18.94;50.12
4981;BME280;2507;50.392;7.482;2022-07-06T05:56:06;101724.72;;;18.59;50.32
4981;BME280;2507;50.392;7.482;2022-07-06T05:58:32;101727.66;;;18.35;51.46
4981;BME280;2507;50.392;7.482;2022-07-06T06:00:57;101724.00;;;18.47;51.27
4981;BME280;2507;50.392;7.482;2022-07-06T06:03:23;101723.50;;;18.42;51.24
4981;BME280;2507;50.392;7.482;2022-07-06T06:05:48;101726.81;;;18.55;51.76
4981;BME280;2507;50.392;7.482;2022-07-06T06:08:14;101726.28;;;18.91;50.81
4981;BME280;2507;50.392;7.482;2022-07-06T06:10:39;101728.53;;;18.96;50.58
4981;BME280;2507;50.392;7.482;2022-07-06T06:13:04;101723.19;;;18.86;50.49
4981;BME280;2507;50.392;7.482;2022-07-06T06:15:30;101728.44;;;18.67;50.94
4981;BME280;2507;50.392;7.482;2022-07-06T06:17:55;101730.53;;;18.43;51.17
4981;BME280;2507;50.392;7.482;2022-07-06T06:20:20;101724.53;;;18.09;51.96
4981;BME280;2507;50.392;7.482;2022-07-06T06:22:47;101725.09;;;17.72;52.86
4981;BME280;2507;50.392;7.482;2022-07-06T06:25:14;101725.56;;;17.66;53.30
4981;BME280;2507;50.392;7.482;2022-07-06T06:27:39;101734.03;;;17.71;53.33
4981;BME280;2507;50.392;7.482;2022-07-06T06:30:05;101730.44;;;17.61;53.92
4981;BME280;2507;50.392;7.482;2022-07-06T06:32:30;101734.81;;;17.82;53.58
4981;BME280;2507;50.392;7.482;2022-07-06T06:34:56;101737.06;;;17.98;52.82
4981;BME280;2507;50.392;7.482;2022-07-06T06:37:21;101738.09;;;18.06;53.06
4981;BME280;2507;50.392;7.482;2022-07-06T06:39:46;101738.56;;;18.53;51.71
4981;BME280;2507;50.392;7.482;2022-07-06T06:42:11;101737.72;;;18.82;50.97
4981;BME280;2507;50.392;7.482;2022-07-06T06:44:37;101735.44;;;19.57;49.55
4981;BME280;2507;50.392;7.482;2022-07-06T06:47:02;101739.38;;;19.91;48.27
4981;BME280;2507;50.392;7.482;2022-07-06T06:49:28;101741.75;;;20.04;48.02
4981;BME280;2507;50.392;7.482;2022-07-06T06:51:53;101744.28;;;20.34;46.92
4981;BME280;2507;50.392;7.482;2022-07-06T06:54:18;101749.72;;;20.52;46.98
4981;BME280;2507;50.392;7.482;2022-07-06T06:56:43;101747.75;;;20.44;47.22
4981;BME280;2507;50.392;7.482;2022-07-06T06:59:09;101753.75;;;20.65;46.55
4981;BME280;2507;50.392;7.482;2022-07-06T07:01:34;101747.38;;;20.29;46.89
4981;BME280;2507;50.392;7.482;2022-07-06T07:03:59;101745.16;;;20.25;47.13
4981;BME280;2507;50.392;7.482;2022-07-06T07:06:24;101749.91;;;20.12;47.61
4981;BME280;2507;50.392;7.482;2022-07-06T07:08:50;101748.38;;;20.00;47.91
4981;BME280;2507;50.392;7.482;2022-07-06T07:11:15;101753.28;;;20.14;47.29
4981;BME280;2507;50.392;7.482;2022-07-06T07:13:40;101759.16;;;19.98;47.51
4981;BME280;2507;50.392;7.482;2022-07-06T07:16:06;101755.78;;;19.96;47.95
4981;BME280;2507;50.392;7.482;2022-07-06T07:18:31;101760.97;;;19.79;47.83
4981;BME280;2507;50.392;7.482;2022-07-06T07:20:57;101756.50;;;19.89;47.87
4981;BME280;2507;50.392;7.482;2022-07-06T07:23:22;101751.31;;;20.81;46.82
4981;BME280;2507;50.392;7.482;2022-07-06T07:25:47;101749.94;;;21.14;44.98
4981;BME280;2507;50.392;7.482;2022-07-06T07:28:13;101755.31;;;21.04;44.98
4981;BME280;2507;50.392;7.482;2022-07-06T07:30:38;101757.16;;;20.58;45.58
4981;BME280;2507;50.392;7.482;2022-07-06T07:33:03;101757.69;;;20.71;46.32
4981;BME280;2507;50.392;7.482;2022-07-06T07:35:28;101754.13;;;20.80;45.50
4981;BME280;2507;50.392;7.482;2022-07-06T07:37:54;101761.09;;;20.34;46.25
4981;BME280;2507;50.392;7.482;2022-07-06T07:40:19;101753.50;;;21.50;44.23
4981;BME280;2507;50.392;7.482;2022-07-06T07:42:45;101747.06;;;22.48;41.32
4981;BME280;2507;50.392;7.482;2022-07-06T07:45:11;101742.97;;;24.35;38.76
4981;BME280;2507;50.392;7.482;2022-07-06T07:47:37;101742.41;;;25.18;36.87
4981;BME280;2507;50.392;7.482;2022-07-06T07:50:03;101747.13;;;23.81;37.82
4981;BME280;2507;50.392;7.482;2022-07-06T07:52:28;101748.41;;;22.26;39.77
4981;BME280;2507;50.392;7.482;2022-07-06T07:54:53;101747.47;;;21.92;41.70
4981;BME280;2507;50.392;7.482;2022-07-06T07:57:19;101743.19;;;22.68;40.99
4981;BME280;2507;50.392;7.482;2022-07-06T07:59:44;101734.47;;;22.41;40.56
4981;BME280;2507;50.392;7.482;2022-07-06T08:02:09;101736.94;;;22.34;41.38
4981;BME280;2507;50.392;7.482;2022-07-06T08:04:35;101736.94;;;23.27;39.52
4981;BME280;2507;50.392;7.482;2022-07-06T08:07:00;101736.22;;;23.75;38.37
4981;BME280;2507;50.392;7.482;2022-07-06T08:09:25;101735.41;;;23.24;38.34
4981;BME280;2507;50.392;7.482;2022-07-06T08:11:51;101740.13;;;21.94;41.39
4981;BME280;2507;50.392;7.482;2022-07-06T08:14:16;101734.25;;;21.91;41.30
4981;BME280;2507;50.392;7.482;2022-07-06T08:16:42;101733.94;;;22.37;40.81
4981;BME280;2507;50.392;7.482;2022-07-06T08:19:07;101741.16;;;22.62;39.77
4981;BME280;2507;50.392;7.482;2022-07-06T08:21:33;101736.63;;;22.88;39.49
4981;BME280;2507;50.392;7.482;2022-07-06T08:23:58;101730.47;;;23.46;38.34
4981;BME280;2507;50.392;7.482;2022-07-06T08:26:25;101725.50;;;25.02;36.50
4981;BME280;2507;50.392;7.482;2022-07-06T08:28:51;101728.56;;;24.99;35.82
4981;BME280;2507;50.392;7.482;2022-07-06T08:31:16;101722.78;;;25.49;35.32
4981;BME280;2507;50.392;7.482;2022-07-06T08:33:41;101724.75;;;26.74;33.80
4981;BME280;2507;50.392;7.482;2022-07-06T08:36:07;101728.34;;;26.15;34.02
4981;BME280;2507;50.392;7.482;2022-07-06T08:38:32;101722.34;;;24.27;36.45
4981;BME280;2507;50.392;7.482;2022-07-06T08:40:57;101736.00;;;22.94;38.36
4981;BME280;2507;50.392;7.482;2022-07-06T08:43:23;101731.84;;;21.70;40.96
4981;BME280;2507;50.392;7.482;2022-07-06T08:45:50;101740.88;;;21.24;41.47
4981;BME280;2507;50.392;7.482;2022-07-06T08:48:18;101736.72;;;20.76;42.25
4981;BME280;2507;50.392;7.482;2022-07-06T08:50:44;101730.25;;;20.78;42.54
4981;BME280;2507;50.392;7.482;2022-07-06T08:53:09;101741.47;;;20.45;43.17
4981;BME280;2507;50.392;7.482;2022-07-06T08:55:34;101737.22;;;20.52;43.69
4981;BME280;2507;50.392;7.482;2022-07-06T08:58:01;101731.16;;;20.96;42.95
4981;BME280;2507;50.392;7.482;2022-07-06T09:00:27;101731.44;;;21.30;42.32
4981;BME280;2507;50.392;7.482;2022-07-06T09:02:52;101729.53;;;21.85;41.34
4981;BME280;2507;50.392;7.482;2022-07-06T09:05:23;101730.22;;;21.87;40.73
4981;BME280;2507;50.392;7.482;2022-07-06T09:07:50;101732.41;;;22.09;40.22
4981;BME280;2507;50.392;7.482;2022-07-06T09:10:17;101733.91;;;22.29;38.76
4981;BME280;2507;50.392;7.482;2022-07-06T09:12:43;101729.00;;;22.50;37.76
4981;BME280;2507;50.392;7.482;2022-07-06T09:15:09;101726.13;;;22.18;39.92
4981;BME280;2507;50.392;7.482;2022-07-06T09:17:37;101725.72;;;22.13;40.16
4981;BME280;2507;50.392;7.482;2022-07-06T09:20:06;101724.22;;;21.93;39.57
4981;BME280;2507;50.392;7.482;2022-07-06T09:22:33;101724.91;;;21.77;41.41
4981;BME280;2507;50.392;7.482;2022-07-06T09:25:12;101718.63;;;21.51;41.06
4981;BME280;2507;50.392;7.482;2022-07-06T09:30:09;101716.09;;;21.32;41.01
4981;BME280;2507;50.392;7.482;2022-07-06T09:32:39;101718.56;;;21.61;40.61
4981;BME280;2507;50.392;7.482;2022-07-06T09:35:05;101719.16;;;21.82;41.33
4981;BME280;2507;50.392;7.482;2022-07-06T09:37:30;101721.81;;;21.37;42.36
4981;BME280;2507;50.392;7.482;2022-07-06T09:39:56;101718.47;;;21.08;42.20
4981;BME280;2507;50.392;7.482;2022-07-06T09:42:24;101732.72;;;21.26;42.69
4981;BME280;2507;50.392;7.482;2022-07-06T09:44:50;101731.03;;;20.98;41.28
4981;BME280;2507;50.392;7.482;2022-07-06T09:47:16;101731.19;;;21.23;41.07
4981;BME280;2507;50.392;7.482;2022-07-06T09:49:42;101731.97;;;21.96;38.35
4981;BME280;2507;50.392;7.482;2022-07-06T09:52:09;101733.63;;;22.58;36.61
4981;BME280;2507;50.392;7.482;2022-07-06T09:54:36;101732.13;;;22.63;37.31
4981;BME280;2507;50.392;7.482;2022-07-06T09:57:02;101733.88;;;22.03;37.72
4981;BME280;2507;50.392;7.482;2022-07-06T09:59:29;101728.41;;;21.78;38.48
4981;BME280;2507;50.392;7.482;2022-07-06T10:02:00;101716.53;;;21.90;38.52
4981;BME280;2507;50.392;7.482;2022-07-06T10:04:27;101717.03;;;22.11;39.18
4981;BME280;2507;50.392;7.482;2022-07-06T10:06:58;101721.31;;;22.21;39.17
4981;BME280;2507;50.392;7.482;2022-07-06T10:09:25;101722.66;;;22.51;38.91
4981;BME280;2507;50.392;7.482;2022-07-06T10:11:56;101722.22;;;22.89;37.58
4981;BME280;2507;50.392;7.482;2022-07-06T10:14:23;101721.63;;;23.03;36.84
4981;BME280;2507;50.392;7.482;2022-07-06T10:16:49;101722.13;;;23.57;36.05
4981;BME280;2507;50.392;7.482;2022-07-06T10:19:16;101717.84;;;24.12;35.64
4981;BME280;2507;50.392;7.482;2022-07-06T10:21:43;101713.66;;;24.17;35.02
4981;BME280;2507;50.392;7.482;2022-07-06T10:24:11;101716.56;;;23.42;36.00
4981;BME280;2507;50.392;7.482;2022-07-06T10:26:38;101716.16;;;23.21;36.25
4981;BME280;2507;50.392;7.482;2022-07-06T10:29:05;101710.47;;;22.82;36.99
4981;BME280;2507;50.392;7.482;2022-07-06T10:31:31;101719.44;;;22.65;36.92
4981;BME280;2507;50.392;7.482;2022-07-06T10:33:58;101715.22;;;22.37;36.61
4981;BME280;2507;50.392;7.482;2022-07-06T10:36:24;101714.72;;;22.59;37.17
4981;BME280;2507;50.392;7.482;2022-07-06T10:38:51;101720.59;;;23.46;35.36
4981;BME280;2507;50.392;7.482;2022-07-06T10:41:17;101714.66;;;24.08;34.85
4981;BME280;2507;50.392;7.482;2022-07-06T10:43:46;101708.59;;;24.31;35.31
4981;BME280;2507;50.392;7.482;2022-07-06T10:46:15;101713.09;;;23.58;35.24
4981;BME280;2507;50.392;7.482;2022-07-06T10:48:43;101718.31;;;23.25;36.39
4981;BME280;2507;50.392;7.482;2022-07-06T10:51:12;101712.63;;;22.71;36.37
4981;BME280;2507;50.392;7.482;2022-07-06T10:53:39;101716.56;;;22.15;37.52
4981;BME280;2507;50.392;7.482;2022-07-06T10:56:07;101713.38;;;22.38;37.02
4981;BME280;2507;50.392;7.482;2022-07-06T10:58:39;101720.41;;;22.56;37.14
4981;BME280;2507;50.392;7.482;2022-07-06T11:01:06;101726.63;;;21.96;38.21
4981;BME280;2507;50.392;7.482;2022-07-06T11:03:48;101724.81;;;21.69;37.18
4981;BME280;2507;50.392;7.482;2022-07-06T11:06:24;101716.19;;;21.93;38.33
4981;BME280;2507;50.392;7.482;2022-07-06T11:08:56;101716.44;;;21.99;37.96
4981;BME280;2507;50.392;7.482;2022-07-06T11:16:19;101721.09;;;22.41;37.16
4981;BME280;2507;50.392;7.482;2022-07-06T11:18:50;101708.50;;;22.59;37.11
4981;BME280;2507;50.392;7.482;2022-07-06T11:21:32;101712.25;;;23.57;36.37
4981;BME280;2507;50.392;7.482;2022-07-06T11:23:58;101712.09;;;23.67;33.81
4981;BME280;2507;50.392;7.482;2022-07-06T11:26:24;101706.19;;;22.97;34.08
4981;BME280;2507;50.392;7.482;2022-07-06T11:28:51;101699.22;;;22.45;34.50
4981;BME280;2507;50.392;7.482;2022-07-06T11:31:17;101704.06;;;22.67;34.22
4981;BME280;2507;50.392;7.482;2022-07-06T11:33:46;101702.19;;;22.68;34.36
4981;BME280;2507;50.392;7.482;2022-07-06T11:36:17;101697.06;;;23.24;34.50
4981;BME280;2507;50.392;7.482;2022-07-06T11:38:43;101685.47;;;23.65;34.22
4981;BME280;2507;50.392;7.482;2022-07-06T11:41:09;101703.06;;;23.60;34.05
4981;BME280;2507;50.392;7.482;2022-07-06T11:43:37;101696.19;;;23.73;34.57
4981;BME280;2507;50.392;7.482;2022-07-06T11:46:03;101697.31;;;23.55;33.69
4981;BME280;2507;50.392;7.482;2022-07-06T11:48:28;101706.94;;;23.15;34.64
4981;BME280;2507;50.392;7.482;2022-07-06T11:51:11;101696.84;;;22.68;34.06
4981;BME280;2507;50.392;7.482;2022-07-06T11:53:51;101698.72;;;22.75;33.20
4981;BME280;2507;50.392;7.482;2022-07-06T11:56:18;101693.66;;;22.98;34.41
4981;BME280;2507;50.392;7.482;2022-07-06T11:58:57;101696.91;;;22.84;34.28
4981;BME280;2507;50.392;7.482;2022-07-06T12:01:24;101697.66;;;22.60;34.60
4981;BME280;2507;50.392;7.482;2022-07-06T12:03:51;101691.72;;;22.49;34.72
4981;BME280;2507;50.392;7.482;2022-07-06T12:06:20;101690.88;;;22.48;35.13
4981;BME280;2507;50.392;7.482;2022-07-06T12:08:54;101682.94;;;22.39;35.30
4981;BME280;2507;50.392;7.482;2022-07-06T12:11:28;101690.03;;;22.73;35.09
4981;BME280;2507;50.392;7.482;2022-07-06T12:13:57;101681.19;;;22.81;35.75
4981;BME280;2507;50.392;7.482;2022-07-06T12:16:34;101692.22;;;22.78;35.73
4981;BME280;2507;50.392;7.482;2022-07-06T12:19:00;101682.44;;;23.02;34.88
4981;BME280;2507;50.392;7.482;2022-07-06T12:21:26;101681.00;;;22.74;34.56
4981;BME280;2507;50.392;7.482;2022-07-06T12:23:53;101684.25;;;22.94;35.01
4981;BME280;2507;50.392;7.482;2022-07-06T12:26:20;101678.31;;;23.24;35.02
4981;BME280;2507;50.392;7.482;2022-07-06T12:29:02;101682.00;;;23.23;35.34
4981;BME280;2507;50.392;7.482;2022-07-06T12:31:33;101677.13;;;23.10;35.14
4981;BME280;2507;50.392;7.482;2022-07-06T12:33:59;101674.13;;;22.46;35.78
4981;BME280;2507;50.392;7.482;2022-07-06T12:36:24;101675.00;;;22.55;36.31
4981;BME280;2507;50.392;7.482;2022-07-06T12:38:50;101677.66;;;22.80;35.76
4981;BME280;2507;50.392;7.482;2022-07-06T12:41:33;101672.41;;;23.04;35.35
4981;BME280;2507;50.392;7.482;2022-07-06T12:44:09;101674.41;;;23.02;35.18
4981;BME280;2507;50.392;7.482;2022-07-06T12:46:36;101671.78;;;23.26;35.73
4981;BME280;2507;50.392;7.482;2022-07-06T12:49:10;101670.38;;;23.72;34.78
4981;BME280;2507;50.392;7.482;2022-07-06T12:54:22;101668.03;;;24.09;33.61
4981;BME280;2507;50.392;7.482;2022-07-06T12:59:32;101663.69;;;23.02;34.99
4981;BME280;2507;50.392;7.482;2022-07-06T13:01:58;101667.13;;;22.79;35.39
4981;BME280;2507;50.392;7.482;2022-07-06T13:04:25;101659.38;;;23.17;34.88
4981;BME280;2507;50.392;7.482;2022-07-06T13:06:50;101663.16;;;23.81;34.90
4981;BME280;2507;50.392;7.482;2022-07-06T13:09:16;101662.34;;;23.96;34.52
4981;BME280;2507;50.392;7.482;2022-07-06T13:11:42;101669.19;;;23.59;34.86
4981;BME280;2507;50.392;7.482;2022-07-06T13:14:07;101676.69;;;22.89;35.04
4981;BME280;2507;50.392;7.482;2022-07-06T13:16:35;101662.53;;;23.05;36.36
4981;BME280;2507;50.392;7.482;2022-07-06T13:19:01;101654.78;;;23.44;35.43